SWR180 LSZH-VTBS
Flight info
| Callsign | SWR180 |
|---|---|
| Flight time | N/A |
| Altitude | 33000 |
| Route | DEGES Z2 UMVEG DCT DIMLO DCT INVED DCT SOKRU DCT DINRO DCT UDROS UM859 KARDE UL851 TBN UM11 REBLO M11 MATAL/N0484F350 M11 LUSAL N701 LARGI B701 TUGTA A909 LEMOD N644 DI A466 SULOM M890 LKN R460 BBN/N0490F370 R460 CEA L507 IGONI DCT WILLA WILLA1C |
| Aircraft | B77W/H-SDE1E2E3FGHIJ2J3J4J5M1RWXY/LB1D1 |
Departure
| Time | 2026-05-05 23:04 |
|---|---|
| Airport | Zürich Airport (LSZH) |
Arrival
| Time | N/A |
|---|---|
| Airport | Suvarnabhumi Airport (VTBS) |
| Time | Latitude | Longitude | Altitude | Speed | Heading |
|---|---|---|---|---|---|
| 2026-05-05 22:34 | 47.46053 | 8.55432 | 1392 ft | 0 kts | 6° |
| 2026-05-05 22:48 | 47.46051 | 8.55431 | 1392 ft | 1 kts | 6° |
| 2026-05-05 22:48 | 47.46036 | 8.55429 | 1392 ft | 2 kts | 6° |
| 2026-05-05 22:48 | 47.46025 | 8.55427 | 1392 ft | 0 kts | 6° |
| 2026-05-05 22:48 | 47.46012 | 8.55426 | 1393 ft | 2 kts | 355° |
| 2026-05-05 22:49 | 47.45998 | 8.55431 | 1393 ft | 2 kts | 335° |
| 2026-05-05 22:49 | 47.45985 | 8.55443 | 1393 ft | 2 kts | 319° |
| 2026-05-05 22:49 | 47.45975 | 8.55459 | 1393 ft | 2 kts | 302° |
| 2026-05-05 22:49 | 47.45969 | 8.55479 | 1393 ft | 2 kts | 285° |
| 2026-05-05 22:50 | 47.45967 | 8.55492 | 1393 ft | 1 kts | 275° |
| 2026-05-05 22:50 | 47.45967 | 8.55494 | 1393 ft | 0 kts | 275° |
| 2026-05-05 22:52 | 47.45970 | 8.55446 | 1393 ft | 8 kts | 275° |
| 2026-05-05 22:53 | 47.45979 | 8.55314 | 1392 ft | 17 kts | 277° |
| 2026-05-05 22:53 | 47.45994 | 8.55096 | 1388 ft | 25 kts | 276° |
| 2026-05-05 22:53 | 47.46078 | 8.54899 | 1386 ft | 23 kts | 335° |
| 2026-05-05 22:53 | 47.46213 | 8.54807 | 1386 ft | 19 kts | 335° |
| 2026-05-05 22:54 | 47.46330 | 8.54727 | 1386 ft | 17 kts | 335° |
| 2026-05-05 22:54 | 47.46434 | 8.54656 | 1386 ft | 16 kts | 335° |
| 2026-05-05 22:54 | 47.46543 | 8.54581 | 1386 ft | 18 kts | 335° |
| 2026-05-05 22:54 | 47.46660 | 8.54498 | 1386 ft | 19 kts | 336° |
| 2026-05-05 22:55 | 47.46789 | 8.54419 | 1385 ft | 20 kts | 340° |
| 2026-05-05 22:55 | 47.46925 | 8.54334 | 1385 ft | 21 kts | 335° |
| 2026-05-05 22:55 | 47.47063 | 8.54235 | 1384 ft | 22 kts | 334° |
| 2026-05-05 22:55 | 47.47210 | 8.54133 | 1384 ft | 21 kts | 336° |
| 2026-05-05 22:56 | 47.47335 | 8.54049 | 1386 ft | 19 kts | 335° |
| 2026-05-05 22:56 | 47.47459 | 8.53964 | 1387 ft | 19 kts | 337° |
| 2026-05-05 22:56 | 47.47509 | 8.53932 | 1388 ft | 4 kts | 334° |
| 2026-05-05 22:56 | 47.47522 | 8.53922 | 1388 ft | 0 kts | 334° |
| 2026-05-05 22:57 | 47.47525 | 8.53920 | 1388 ft | 4 kts | 334° |
| 2026-05-05 22:58 | 47.47615 | 8.53855 | 1391 ft | 21 kts | 335° |
| 2026-05-05 22:58 | 47.47704 | 8.53776 | 1394 ft | 10 kts | 294° |
| 2026-05-05 22:58 | 47.47705 | 8.53734 | 1394 ft | 0 kts | 254° |
| 2026-05-05 23:00 | 47.47697 | 8.53712 | 1394 ft | 5 kts | 235° |
| 2026-05-05 23:00 | 47.47652 | 8.53661 | 1393 ft | 11 kts | 205° |
| 2026-05-05 23:00 | 47.47580 | 8.53622 | 1393 ft | 10 kts | 195° |
| 2026-05-05 23:01 | 47.47504 | 8.53640 | 1391 ft | 13 kts | 158° |
| 2026-05-05 23:01 | 47.47470 | 8.53661 | 1390 ft | 0 kts | 156° |
| 2026-05-05 23:03 | 47.47380 | 8.53723 | 1389 ft | 41 kts | 156° |
| 2026-05-05 23:03 | 47.46911 | 8.54046 | 1383 ft | 105 kts | 155° |
| 2026-05-05 23:04 | 47.46062 | 8.54629 | 1387 ft | 161 kts | 155° |
| 2026-05-05 23:04 | 47.44928 | 8.55409 | 1588 ft | 191 kts | 156° |
| 2026-05-05 23:04 | 47.43723 | 8.56228 | 2223 ft | 194 kts | 155° |
| 2026-05-05 23:04 | 47.42728 | 8.57471 | 2888 ft | 193 kts | 124° |
| 2026-05-05 23:05 | 47.42313 | 8.59444 | 3163 ft | 211 kts | 91° |
| 2026-05-05 23:05 | 47.42806 | 8.61547 | 3347 ft | 232 kts | 51° |
| 2026-05-05 23:05 | 47.43971 | 8.63306 | 3658 ft | 250 kts | 45° |
| 2026-05-05 23:05 | 47.45248 | 8.65143 | 4035 ft | 265 kts | 50° |
| 2026-05-05 23:06 | 47.46131 | 8.67543 | 4528 ft | 272 kts | 79° |
| 2026-05-05 23:06 | 47.46373 | 8.70303 | 5214 ft | 273 kts | 89° |
| 2026-05-05 23:06 | 47.46450 | 8.73113 | 5942 ft | 274 kts | 90° |
| 2026-05-05 23:06 | 47.46510 | 8.75919 | 6641 ft | 277 kts | 90° |
| 2026-05-05 23:07 | 47.46586 | 8.78756 | 7290 ft | 281 kts | 89° |
| 2026-05-05 23:07 | 47.46674 | 8.81619 | 7929 ft | 283 kts | 95° |
| 2026-05-05 23:07 | 47.46415 | 8.84496 | 8560 ft | 284 kts | 104° |
| 2026-05-05 23:07 | 47.46000 | 8.87337 | 9269 ft | 284 kts | 105° |
| 2026-05-05 23:08 | 47.45573 | 8.90188 | 9906 ft | 285 kts | 104° |
| 2026-05-05 23:08 | 47.45152 | 8.93089 | 10333 ft | 296 kts | 104° |
| 2026-05-05 23:08 | 47.44717 | 8.96145 | 10645 ft | 312 kts | 104° |
| 2026-05-05 23:08 | 47.44262 | 8.99327 | 10946 ft | 329 kts | 104° |
| 2026-05-05 23:09 | 47.43779 | 9.02698 | 11266 ft | 344 kts | 104° |
| 2026-05-05 23:09 | 47.43269 | 9.06239 | 11604 ft | 360 kts | 104° |
| 2026-05-05 23:09 | 47.42736 | 9.09932 | 12014 ft | 374 kts | 104° |
| 2026-05-05 23:09 | 47.42190 | 9.13705 | 12516 ft | 384 kts | 104° |
| 2026-05-05 23:10 | 47.41630 | 9.17569 | 13275 ft | 387 kts | 104° |
| 2026-05-05 23:10 | 47.41071 | 9.21453 | 14000 ft | 390 kts | 102° |
| 2026-05-05 23:10 | 47.40800 | 9.25437 | 14591 ft | 399 kts | 91° |
| 2026-05-05 23:10 | 47.41059 | 9.29557 | 15205 ft | 408 kts | 80° |
| 2026-05-05 23:11 | 47.41872 | 9.33602 | 15837 ft | 414 kts | 70° |
| 2026-05-05 23:11 | 47.42898 | 9.37561 | 16528 ft | 417 kts | 71° |
| 2026-05-05 23:11 | 47.43823 | 9.41661 | 17159 ft | 422 kts | 74° |
| 2026-05-05 23:11 | 47.44673 | 9.45787 | 17791 ft | 427 kts | 76° |
| 2026-05-05 23:12 | 47.45452 | 9.50030 | 18392 ft | 431 kts | 77° |
| 2026-05-05 23:12 | 47.46191 | 9.54335 | 19033 ft | 434 kts | 78° |
| 2026-05-05 23:12 | 47.46833 | 9.58693 | 19605 ft | 437 kts | 84° |
| 2026-05-05 23:12 | 47.47018 | 9.63145 | 20142 ft | 439 kts | 94° |
| 2026-05-05 23:13 | 47.46836 | 9.67687 | 20706 ft | 442 kts | 97° |
| 2026-05-05 23:13 | 47.46603 | 9.72159 | 21233 ft | 445 kts | 98° |
| 2026-05-05 23:13 | 47.46356 | 9.76739 | 21753 ft | 450 kts | 98° |
| 2026-05-05 23:13 | 47.46103 | 9.81380 | 22332 ft | 454 kts | 98° |
| 2026-05-05 23:14 | 47.45845 | 9.86042 | 22875 ft | 457 kts | 98° |
| 2026-05-05 23:14 | 47.45586 | 9.90695 | 23377 ft | 461 kts | 98° |
| 2026-05-05 23:14 | 47.45318 | 9.95443 | 23847 ft | 466 kts | 98° |
| 2026-05-05 23:14 | 47.45045 | 10.00246 | 24289 ft | 471 kts | 99° |
| 2026-05-05 23:15 | 47.44770 | 10.05043 | 24760 ft | 475 kts | 99° |
| 2026-05-05 23:15 | 47.44488 | 10.09927 | 25232 ft | 478 kts | 99° |
| 2026-05-05 23:15 | 47.44205 | 10.14798 | 25666 ft | 482 kts | 99° |
| 2026-05-05 23:15 | 47.43806 | 10.19688 | 26071 ft | 483 kts | 104° |
| 2026-05-05 23:16 | 47.43175 | 10.24581 | 26470 ft | 486 kts | 105° |
| 2026-05-05 23:16 | 47.42519 | 10.29456 | 26899 ft | 489 kts | 105° |
| 2026-05-05 23:16 | 47.41854 | 10.34369 | 27318 ft | 493 kts | 105° |
| 2026-05-05 23:16 | 47.41175 | 10.39372 | 27698 ft | 497 kts | 105° |
| 2026-05-05 23:17 | 47.40500 | 10.44336 | 28112 ft | 500 kts | 106° |
| 2026-05-05 23:17 | 47.39809 | 10.49404 | 28500 ft | 504 kts | 106° |
| 2026-05-05 23:17 | 47.39111 | 10.54476 | 28821 ft | 509 kts | 106° |
| 2026-05-05 23:17 | 47.38412 | 10.59535 | 29218 ft | 511 kts | 106° |
| 2026-05-05 23:18 | 47.37695 | 10.64717 | 29685 ft | 512 kts | 106° |
| 2026-05-05 23:18 | 47.36991 | 10.69788 | 30226 ft | 511 kts | 107° |
| 2026-05-05 23:18 | 47.36278 | 10.74907 | 30709 ft | 511 kts | 107° |
| 2026-05-05 23:18 | 47.35557 | 10.80057 | 30968 ft | 514 kts | 107° |
| 2026-05-05 23:19 | 47.34100 | 10.90421 | 30987 ft | 511 kts | 107° |
| 2026-05-05 23:19 | 47.32633 | 11.00783 | 30975 ft | 512 kts | 107° |
| 2026-05-05 23:20 | 47.31163 | 11.11094 | 30961 ft | 511 kts | 107° |
| 2026-05-05 23:20 | 47.29691 | 11.21349 | 30946 ft | 510 kts | 107° |
| 2026-05-05 23:21 | 47.28218 | 11.31539 | 30916 ft | 512 kts | 107° |
| 2026-05-05 23:21 | 47.26734 | 11.41740 | 30923 ft | 512 kts | 107° |
| 2026-05-05 23:22 | 47.25491 | 11.50231 | 30941 ft | 510 kts | 107° |
| 2026-05-05 23:22 | 47.25332 | 11.51317 | 30949 ft | 510 kts | 107° |